METAR Data
IDs: Format: Raw Decoded Include TAF

Data at: 0431 UTC 26 May 2022

METAR for:KIAH (Houston/Bush Intl, TX, US)
Text:KIAH 260353Z 00000KT 10SM CLR 21/14 A2995 RMK AO2 SLP140 T02110144
Temperature: 21.1°C ( 70°F)
Dewpoint: 14.4°C ( 58°F) [RH = 66%]
Pressure (altimeter):29.95 inches Hg (1014.3 mb) [Sea level pressure: 1014.0 mb]
Winds:calm
Visibility:10 or more sm (16+ km)
Ceiling:at least 12,000 feet AGL
Clouds:sky clear below 12,000 feet AGL

METAR for:KHOU (Houston/Hobby Arpt, TX, US)
Text:KHOU 260353Z 35004KT 10SM CLR 22/14 A2994 RMK AO2 SLP143 T02220139
Temperature: 22.2°C ( 72°F)
Dewpoint: 13.9°C ( 57°F) [RH = 59%]
Pressure (altimeter):29.94 inches Hg (1014.0 mb) [Sea level pressure: 1014.3 mb]
Winds:from the N (350 degrees) at 5 MPH (4 knots; 2.1 m/s)
Visibility:10 or more sm (16+ km)
Ceiling:at least 12,000 feet AGL
Clouds:sky clear below 12,000 feet AGL

METAR for:KGLS (Galveston/Scholes In, TX, US)
Text:KGLS 260352Z AUTO 31006KT 10SM CLR 26/17 A2994 RMK AO2 SLP139 T02560172
Temperature: 25.6°C ( 78°F)
Dewpoint: 17.2°C ( 63°F) [RH = 60%]
Pressure (altimeter):29.94 inches Hg (1014.0 mb) [Sea level pressure: 1013.9 mb]
Winds:from the NW (310 degrees) at 7 MPH (6 knots; 3.1 m/s)
Visibility:10 or more sm (16+ km)
Ceiling:at least 12,000 feet AGL
Clouds:sky clear below 12,000 feet AGL
QC Flag:automated observation with no human augmentation

METAR for:KLVJ (Houston/Pearland Rgn, TX, US)
Text:KLVJ 260353Z AUTO 34003KT 10SM CLR 22/16 A2995 RMK AO2 SLP141 T02170156
Temperature: 21.7°C ( 71°F)
Dewpoint: 15.6°C ( 60°F) [RH = 68%]
Pressure (altimeter):29.95 inches Hg (1014.3 mb) [Sea level pressure: 1014.1 mb]
Winds:from the NNW (340 degrees) at 3 MPH (3 knots; 1.5 m/s)
Visibility:10 or more sm (16+ km)
Ceiling:at least 12,000 feet AGL
Clouds:sky clear below 12,000 feet AGL
QC Flag:automated observation with no human augmentation

METAR for:KSGR (Houston/Sugar Land R, TX, US)
Text:KSGR 260353Z AUTO 35005KT 10SM CLR 19/15 A2995 RMK AO2 SLP142 T01940150
Temperature: 19.4°C ( 67°F)
Dewpoint: 15.0°C ( 59°F) [RH = 76%]
Pressure (altimeter):29.95 inches Hg (1014.3 mb) [Sea level pressure: 1014.2 mb]
Winds:from the N (350 degrees) at 6 MPH (5 knots; 2.6 m/s)
Visibility:10 or more sm (16+ km)
Ceiling:at least 12,000 feet AGL
Clouds:sky clear below 12,000 feet AGL
QC Flag:automated observation with no human augmentation

METAR for:KDWH (Houston/Hooks Mem, TX, US)
Text:KDWH 260353Z AUTO 00000KT 10SM CLR 18/16 A2995 RMK AO2 SLP139 T01830156
Temperature: 18.3°C ( 65°F)
Dewpoint: 15.6°C ( 60°F) [RH = 84%]
Pressure (altimeter):29.95 inches Hg (1014.3 mb) [Sea level pressure: 1013.9 mb]
Winds:calm
Visibility:10 or more sm (16+ km)
Ceiling:at least 12,000 feet AGL
Clouds:sky clear below 12,000 feet AGL
QC Flag:automated observation with no human augmentation

METAR for:KCLL (College Station/East, TX, US)
Text:KCLL 260353Z AUTO 00000KT 10SM CLR 19/14 A2995 RMK AO2 SLP138 T01940139
Temperature: 19.4°C ( 67°F)
Dewpoint: 13.9°C ( 57°F) [RH = 71%]
Pressure (altimeter):29.95 inches Hg (1014.3 mb) [Sea level pressure: 1013.8 mb]
Winds:calm
Visibility:10 or more sm (16+ km)
Ceiling:at least 12,000 feet AGL
Clouds:sky clear below 12,000 feet AGL
QC Flag:automated observation with no human augmentation

METAR for:KUTS (Huntsville Muni, TX, US)
Text:KUTS 260353Z AUTO 00000KT 10SM CLR 19/14 A2995 RMK AO2 SLP139 T01890144
Temperature: 18.9°C ( 66°F)
Dewpoint: 14.4°C ( 58°F) [RH = 75%]
Pressure (altimeter):29.95 inches Hg (1014.3 mb) [Sea level pressure: 1013.9 mb]
Winds:calm
Visibility:10 or more sm (16+ km)
Ceiling:at least 12,000 feet AGL
Clouds:sky clear below 12,000 feet AGL
QC Flag:automated observation with no human augmentation

METAR for:KCXO (Conroe/Executive Arp, TX, US)
Text:KCXO 260353Z AUTO 00000KT 10SM CLR 17/16 A2996 RMK AO2 SLP142 T01670161
Temperature: 16.7°C ( 62°F)
Dewpoint: 16.1°C ( 61°F) [RH = 96%]
Pressure (altimeter):29.96 inches Hg (1014.6 mb) [Sea level pressure: 1014.2 mb]
Winds:calm
Visibility:10 or more sm (16+ km)
Ceiling:at least 12,000 feet AGL
Clouds:sky clear below 12,000 feet AGL
QC Flag:automated observation with no human augmentation

METAR for:KLBX (Angleton/Texas Gulf, TX, US)
Text:KLBX 260353Z AUTO 33004KT 10SM CLR 21/16 A2994 RMK AO2 SLP138 T02110161
Temperature: 21.1°C ( 70°F)
Dewpoint: 16.1°C ( 61°F) [RH = 73%]
Pressure (altimeter):29.94 inches Hg (1014.0 mb) [Sea level pressure: 1013.8 mb]
Winds:from the NNW (330 degrees) at 5 MPH (4 knots; 2.1 m/s)
Visibility:10 or more sm (16+ km)
Ceiling:at least 12,000 feet AGL
Clouds:sky clear below 12,000 feet AGL
QC Flag:automated observation with no human augmentation

METAR for:KPSX (Palacios Muni, TX, US)
Text:KPSX 260253Z AUTO 03006KT 10SM CLR 23/18 A2990 RMK AO2 SLP125 T02280178 53024
Temperature: 22.8°C ( 73°F)
Dewpoint: 17.8°C ( 64°F) [RH = 73%]
Pressure (altimeter):29.90 inches Hg (1012.6 mb) [Sea level pressure: 1012.5 mb]
Winds:from the NNE (30 degrees) at 7 MPH (6 knots; 3.1 m/s)
Visibility:10 or more sm (16+ km)
Ceiling:at least 12,000 feet AGL
Clouds:sky clear below 12,000 feet AGL
QC Flag:automated observation with no human augmentation